Terminal Aerodrome Forecast
Issued by NWS

Home | Current Version | Previous Version | Text Only | Print | Product List | Glossary On
Versions: 1 2 3 4 5 6 7 8 9 10 11 12 13 14 15 16 17 18 19 20 21 22 23 24
000
FTUS43 KAPX 300403 AAC
TAFTVC
TAF AMD
KTVC 300403Z 3004/3024 00000KT P6SM OVC015
     FM300600 00000KT 4SM BR OVC012
     FM301300 25005KT P6SM SCT015
     FM301700 27007KT P6SM SCT030=

USA.gov is the U.S. government's official web portal to all federal, state and local government web resources and services.